createdAt,value
2023-01-05T00:01:14.430Z,12.06
2023-01-05T00:05:17.605Z,12.08
2023-01-05T00:09:20.984Z,12.09
2023-01-05T00:13:41.507Z,12.04
2023-01-05T00:18:03.233Z,12.01
2023-01-05T00:22:34.619Z,11.97
2023-01-05T00:26:37.733Z,11.94
2023-01-05T00:30:42.690Z,11.93
2023-01-05T00:34:47.601Z,11.95
2023-01-05T00:38:50.737Z,11.92
2023-01-05T00:42:53.790Z,11.85
2023-01-05T00:46:56.865Z,11.86
2023-01-05T00:51:01.944Z,11.83
2023-01-05T00:55:05.648Z,11.81
2023-01-05T00:59:08.933Z,11.80
2023-01-05T01:03:12.143Z,11.78
2023-01-05T01:07:16.618Z,11.73
2023-01-05T01:11:19.887Z,11.74
2023-01-05T01:15:22.954Z,11.71
2023-01-05T01:19:27.327Z,11.68
2023-01-05T01:23:31.764Z,11.67
2023-01-05T01:27:34.989Z,11.63
2023-01-05T01:31:38.066Z,11.59
2023-01-05T01:35:41.120Z,11.63
2023-01-05T01:39:46.161Z,11.60
2023-01-05T01:43:53.333Z,11.56
2023-01-05T01:48:00.190Z,11.56
2023-01-05T01:52:03.672Z,11.56
2023-01-05T01:56:11.300Z,11.50
2023-01-05T02:00:15.394Z,11.38
2023-01-05T02:04:21.940Z,11.32
2023-01-05T02:08:31.281Z,11.26
2023-01-05T02:12:46.092Z,11.24
2023-01-05T02:17:03.458Z,11.23
2023-01-05T02:21:20.720Z,11.22
2023-01-05T02:25:55.118Z,11.23
2023-01-05T02:31:01.109Z,11.23
2023-01-05T02:35:21.442Z,11.25
2023-01-05T02:39:29.568Z,11.24
2023-01-05T02:43:33.294Z,11.30
2023-01-05T02:47:40.932Z,11.27
2023-01-05T02:51:50.522Z,11.29
2023-01-05T02:55:58.545Z,11.30
2023-01-05T03:00:08.155Z,11.29
2023-01-05T03:04:18.782Z,11.25
2023-01-05T03:08:32.346Z,11.02
2023-01-05T03:12:57.031Z,11.01
2023-01-05T03:17:04.185Z,11.07
2023-01-05T03:21:10.475Z,11.15
2023-01-05T03:25:32.925Z,11.22
2023-01-05T03:29:54.708Z,11.21
2023-01-05T03:34:21.428Z,11.26
2023-01-05T03:38:32.033Z,11.29
2023-01-05T03:42:38.501Z,11.11
2023-01-05T03:46:42.349Z,10.90
2023-01-05T03:50:46.165Z,10.86
2023-01-05T03:54:52.858Z,10.96
2023-01-05T03:58:56.325Z,11.02
2023-01-05T04:03:01.274Z,11.03
2023-01-05T04:07:04.797Z,11.03
2023-01-05T04:11:17.115Z,10.78
2023-01-05T04:15:26.762Z,10.60
2023-01-05T04:19:31.400Z,10.56
2023-01-05T04:23:35.604Z,10.56
2023-01-05T04:27:41.418Z,10.60
2023-01-05T04:31:45.059Z,10.66
2023-01-05T04:35:49.993Z,10.57
2023-01-05T04:39:55.007Z,10.65
2023-01-05T04:43:59.780Z,10.68
2023-01-05T04:48:03.778Z,10.78
2023-01-05T04:52:07.856Z,10.79
2023-01-05T04:56:11.759Z,10.82
2023-01-05T05:00:20.035Z,10.84
2023-01-05T05:04:26.647Z,10.87
2023-01-05T05:08:29.754Z,10.83
2023-01-05T05:12:35.019Z,10.89
2023-01-05T05:16:39.822Z,10.84
2023-01-05T05:20:46.668Z,10.88
2023-01-05T05:24:49.868Z,10.89
2023-01-05T05:28:53.109Z,10.88
2023-01-05T05:32:57.671Z,10.88
2023-01-05T05:37:00.785Z,10.90
2023-01-05T05:41:03.864Z,10.89
2023-01-05T05:45:08.024Z,10.91
2023-01-05T05:49:12.610Z,10.87
2023-01-05T05:53:15.713Z,10.90
2023-01-05T05:57:18.812Z,10.91
2023-01-05T06:01:21.960Z,10.88
2023-01-05T06:05:26.398Z,10.97
2023-01-05T06:09:29.535Z,10.96
2023-01-05T06:13:32.826Z,10.98
2023-01-05T06:17:35.944Z,11.00
2023-01-05T06:21:40.408Z,11.03
2023-01-05T06:25:43.987Z,11.03
2023-01-05T06:29:47.042Z,11.03
2023-01-05T06:33:50.083Z,11.06
2023-01-05T06:37:54.494Z,11.06
2023-01-05T06:41:57.607Z,11.07
2023-01-05T06:46:00.697Z,11.08
2023-01-05T06:50:03.851Z,11.08
2023-01-05T06:54:08.308Z,11.08
2023-01-05T06:58:11.441Z,11.06
2023-01-05T07:02:16.258Z,11.06
2023-01-05T07:06:19.611Z,11.06
2023-01-05T07:10:24.073Z,11.03
2023-01-05T07:14:27.160Z,11.07
2023-01-05T07:18:30.495Z,11.04
2023-01-05T07:22:33.853Z,11.06
2023-01-05T07:26:38.493Z,11.02
2023-01-05T07:30:41.660Z,10.99
2023-01-05T07:34:51.186Z,11.04
2023-01-05T07:38:59.643Z,11.03
2023-01-05T07:43:04.809Z,11.00
2023-01-05T07:47:07.975Z,11.01
2023-01-05T07:51:11.779Z,10.98
2023-01-05T07:55:15.140Z,10.95
2023-01-05T07:59:19.827Z,10.91
2023-01-05T08:03:23.488Z,10.90
2023-01-05T08:07:26.612Z,10.92
2023-01-05T08:11:29.756Z,10.95
2023-01-05T08:15:34.264Z,10.93
2023-01-05T08:19:37.337Z,10.96
2023-01-05T08:23:40.537Z,10.98
2023-01-05T08:27:43.677Z,11.00
2023-01-05T08:31:48.224Z,11.00
2023-01-05T08:35:51.305Z,11.02
2023-01-05T08:39:54.426Z,11.04
2023-01-05T08:43:59.710Z,11.05
2023-01-05T08:48:04.218Z,11.11
2023-01-05T08:52:08.331Z,11.05
2023-01-05T08:56:12.018Z,11.08
2023-01-05T09:00:17.407Z,11.12
2023-01-05T09:04:21.913Z,11.09
2023-01-05T09:08:25.304Z,11.12
2023-01-05T09:12:32.952Z,11.17
2023-01-05T09:21:01.393Z,11.20
2023-01-05T09:25:05.553Z,11.23
2023-01-05T09:29:08.866Z,11.32
2023-01-05T09:33:12.026Z,11.45
2023-01-05T09:37:16.571Z,11.43
2023-01-05T09:41:23.940Z,11.43
2023-01-05T09:45:28.792Z,11.39
2023-01-05T09:49:34.999Z,11.37
2023-01-05T09:53:41.163Z,11.40
2023-01-05T09:57:49.493Z,11.45
2023-01-05T10:01:55.512Z,11.42
2023-01-05T10:06:00.221Z,11.41
2023-01-05T10:10:10.043Z,11.43
2023-01-05T10:14:17.571Z,11.42
2023-01-05T10:18:25.256Z,11.45
2023-01-05T10:22:41.553Z,11.55
2023-01-05T10:31:24.685Z,12.37
2023-01-05T10:36:02.409Z,12.16
2023-01-05T10:40:21.048Z,12.26
2023-01-05T10:44:53.299Z,12.09
2023-01-05T10:48:56.431Z,12.21
2023-01-05T10:53:02.341Z,12.39
2023-01-05T10:57:37.388Z,12.76
2023-01-05T11:01:46.127Z,12.40
2023-01-05T11:05:49.725Z,12.20
2023-01-05T11:09:52.997Z,12.09
2023-01-05T11:13:58.875Z,11.91
2023-01-05T11:18:05.384Z,11.91
2023-01-05T11:22:29.384Z,11.92
2023-01-05T11:26:35.325Z,11.97
2023-01-05T11:30:39.595Z,12.19
2023-01-05T11:34:46.036Z,12.49
2023-01-05T11:38:55.462Z,12.63
2023-01-05T11:43:00.299Z,12.67
2023-01-05T11:47:03.895Z,12.60
2023-01-05T11:51:08.433Z,12.56
2023-01-05T11:55:34.140Z,12.24
2023-01-05T11:59:39.240Z,12.09
2023-01-05T12:04:01.508Z,11.98
2023-01-05T12:08:11.589Z,11.92
2023-01-05T12:12:33.481Z,12.20
2023-01-05T12:16:46.626Z,13.00
2023-01-05T12:20:57.698Z,14.28
2023-01-05T12:25:10.240Z,14.19
2023-01-05T12:34:14.085Z,13.21
2023-01-05T12:38:46.197Z,13.29
2023-01-05T12:43:01.825Z,12.91
2023-01-05T12:47:23.956Z,13.79
2023-01-05T12:51:34.519Z,13.85
2023-01-05T12:55:43.342Z,13.64
2023-01-05T12:59:55.888Z,14.11
2023-01-05T13:04:04.021Z,14.40
2023-01-05T13:08:16.144Z,14.35
2023-01-05T13:12:20.286Z,13.46
2023-01-05T13:16:27.479Z,12.44
2023-01-05T13:20:41.055Z,11.83
2023-01-05T13:24:53.354Z,11.54
2023-01-05T13:28:56.907Z,11.57
2023-01-05T13:33:18.633Z,11.55
2023-01-05T13:37:55.638Z,11.65
2023-01-05T13:42:27.515Z,11.71
2023-01-05T13:46:48.896Z,11.77
2023-01-05T13:51:13.422Z,11.89
2023-01-05T13:55:25.885Z,12.04
2023-01-05T13:59:44.167Z,12.14
2023-01-05T14:03:55.041Z,12.25
2023-01-05T14:08:03.141Z,12.18
2023-01-05T14:12:28.578Z,12.33
2023-01-05T14:16:55.887Z,12.05
2023-01-05T14:20:59.266Z,11.97
2023-01-05T14:25:38.247Z,11.86
2023-01-05T14:30:04.093Z,11.83
2023-01-05T14:34:15.350Z,11.82
2023-01-05T14:38:23.174Z,11.78
2023-01-05T14:42:33.436Z,11.76
2023-01-05T14:46:57.815Z,11.77
2023-01-05T14:51:23.903Z,11.72
2023-01-05T14:55:38.382Z,11.64
2023-01-05T14:59:44.009Z,11.69
2023-01-05T15:03:54.570Z,11.65
2023-01-05T15:08:09.159Z,11.62
2023-01-05T15:12:32.904Z,11.47
2023-01-05T15:16:56.392Z,11.44
2023-01-05T15:21:33.715Z,11.44
2023-01-05T15:26:07.647Z,11.34
2023-01-05T15:30:23.353Z,11.21
2023-01-05T15:34:31.040Z,11.04
2023-01-05T15:38:46.163Z,10.97
2023-01-05T15:42:51.178Z,10.88
2023-01-05T15:46:56.283Z,10.83
2023-01-05T15:51:00.124Z,10.82
2023-01-05T15:55:14.501Z,10.60
2023-01-05T15:59:31.126Z,10.49
2023-01-05T16:03:36.456Z,10.37
2023-01-05T16:07:43.697Z,10.31
2023-01-05T16:11:49.948Z,10.28
2023-01-05T16:15:56.058Z,10.28
2023-01-05T16:20:03.839Z,10.19
2023-01-05T16:24:15.749Z,10.22
2023-01-05T16:28:23.128Z,10.17
2023-01-05T16:32:36.935Z,10.12
2023-01-05T16:36:40.119Z,10.11
2023-01-05T16:40:59.977Z,10.04
2023-01-05T16:45:09.371Z,10.03
2023-01-05T16:49:35.000Z,10.04
2023-01-05T16:53:43.707Z,10.01
2023-01-05T16:57:46.718Z,10.02
2023-01-05T17:01:51.231Z,10.00
2023-01-05T17:05:55.818Z,9.98
2023-01-05T17:09:59.940Z,10.04
2023-01-05T17:14:04.114Z,10.04
2023-01-05T17:18:17.186Z,10.01
2023-01-05T17:22:20.721Z,10.03
2023-01-05T17:26:26.389Z,10.04
2023-01-05T17:30:29.526Z,10.04
2023-01-05T17:34:34.024Z,10.05
2023-01-05T17:38:37.373Z,10.09
2023-01-05T17:42:43.675Z,10.06
2023-01-05T17:46:49.252Z,10.11
2023-01-05T17:50:54.537Z,10.15
2023-01-05T17:54:57.782Z,10.21
2023-01-05T17:59:01.172Z,10.23
2023-01-05T18:03:04.439Z,10.20
2023-01-05T18:11:17.800Z,10.19
2023-01-05T18:15:21.161Z,10.21
2023-01-05T18:19:24.399Z,10.25
2023-01-05T18:23:28.929Z,10.31
2023-01-05T18:27:35.494Z,10.34
2023-01-05T18:31:41.741Z,10.39
2023-01-05T18:35:45.290Z,10.36
2023-01-05T18:39:49.939Z,10.38
2023-01-05T18:43:53.370Z,10.40
2023-01-05T18:47:58.075Z,10.41
2023-01-05T18:52:01.154Z,10.45
2023-01-05T18:56:08.672Z,10.46
2023-01-05T19:00:13.165Z,10.49
2023-01-05T19:04:17.926Z,10.51
2023-01-05T19:08:21.065Z,10.59
2023-01-05T19:12:25.730Z,10.63
2023-01-05T19:16:31.686Z,10.71
2023-01-05T19:20:34.759Z,10.73
2023-01-05T19:24:37.906Z,10.75
2023-01-05T19:28:45.253Z,10.84
2023-01-05T19:32:48.317Z,10.90
2023-01-05T19:36:51.476Z,10.93
2023-01-05T19:40:54.626Z,10.97
2023-01-05T19:44:59.236Z,11.00
2023-01-05T19:49:02.369Z,11.05
2023-01-05T19:53:05.492Z,11.04
2023-01-05T19:57:08.577Z,11.05
2023-01-05T20:01:15.072Z,11.08
2023-01-05T20:05:18.345Z,11.13
2023-01-05T20:09:22.225Z,11.16
2023-01-05T20:13:25.419Z,11.22
2023-01-05T20:17:29.863Z,11.29
2023-01-05T20:21:33.563Z,11.28
2023-01-05T20:25:37.887Z,11.30
2023-01-05T20:29:41.485Z,11.30
2023-01-05T20:33:46.263Z,11.32
2023-01-05T20:37:49.380Z,11.32
2023-01-05T20:41:54.626Z,11.30
2023-01-05T20:45:57.824Z,11.36
2023-01-05T20:50:02.400Z,11.34
2023-01-05T20:54:09.037Z,11.37
2023-01-05T20:58:12.115Z,11.42
2023-01-05T21:02:23.679Z,11.38
2023-01-05T21:06:29.453Z,11.40
2023-01-05T21:10:32.627Z,11.41
2023-01-05T21:14:35.897Z,11.47
2023-01-05T21:18:39.048Z,11.42
2023-01-05T21:22:43.501Z,11.46
2023-01-05T21:26:46.651Z,11.44
2023-01-05T21:30:49.791Z,11.45
2023-01-05T21:34:52.961Z,11.50
2023-01-05T21:39:00.917Z,11.48
2023-01-05T21:43:06.431Z,11.49
2023-01-05T21:47:09.582Z,11.49
2023-01-05T21:51:29.945Z,11.47
2023-01-05T21:55:53.551Z,11.45
2023-01-05T21:59:56.628Z,11.41
2023-01-05T22:03:59.766Z,11.38
2023-01-05T22:08:02.900Z,11.38
2023-01-05T22:12:09.131Z,11.36
2023-01-05T22:16:12.336Z,11.37
2023-01-05T22:20:16.100Z,11.38
2023-01-05T22:24:19.406Z,11.35
2023-01-05T22:28:23.897Z,11.37
2023-01-05T22:32:27.061Z,11.36
2023-01-05T22:36:31.510Z,11.32
2023-01-05T22:40:34.853Z,11.29
2023-01-05T22:44:39.601Z,11.19
2023-01-05T22:48:46.061Z,11.09
2023-01-05T22:52:49.832Z,11.08
2023-01-05T22:56:52.943Z,10.98
2023-01-05T23:00:57.360Z,10.96
2023-01-05T23:05:01.911Z,10.92
2023-01-05T23:09:08.312Z,10.93
2023-01-05T23:13:11.372Z,10.94
2023-01-05T23:17:15.912Z,10.92
2023-01-05T23:21:20.697Z,10.95
2023-01-05T23:25:23.788Z,10.99
2023-01-05T23:29:27.464Z,10.97
2023-01-05T23:33:35.440Z,11.00
2023-01-05T23:37:38.607Z,11.02
2023-01-05T23:41:41.689Z,10.99
2023-01-05T23:45:45.415Z,11.01
2023-01-05T23:49:49.871Z,11.04
2023-01-05T23:53:54.587Z,11.01
2023-01-05T23:57:57.707Z,11.01
